TimeEDT,TemperatureF,Dew PointF,Humidity,Sea Level PressureIn,VisibilityMPH,Wind Direction,Wind SpeedMPH,Gust SpeedMPH,PrecipitationIn,Events,Conditions,WindDirDegrees,DateUTC
12:16 AM,53.6,46.4,77,30.32,10.0,NE,11.5,-,N/A,,Scattered Clouds,40,2013-09-17 04:16:00
12:53 AM,52.0,46.9,83,30.32,10.0,NE,4.6,-,N/A,,Clear,40,2013-09-17 04:53:00
1:53 AM,48.9,46.0,90,30.34,10.0,Calm,Calm,-,N/A,,Clear,0,2013-09-17 05:53:00
2:53 AM,48.9,45.0,86,30.34,10.0,NE,6.9,-,N/A,,Partly Cloudy,40,2013-09-17 06:53:00
3:53 AM,46.9,44.1,90,30.35,10.0,NE,5.8,-,N/A,,Clear,40,2013-09-17 07:53:00
4:53 AM,44.1,41.0,89,30.38,10.0,NNE,6.9,-,N/A,,Clear,20,2013-09-17 08:53:00
5:53 AM,42.1,39.0,89,30.40,10.0,NE,3.5,-,N/A,,Clear,40,2013-09-17 09:53:00
6:53 AM,41.0,37.9,89,30.43,10.0,NNE,3.5,-,N/A,,Clear,30,2013-09-17 10:53:00
7:53 AM,43.0,39.9,89,30.45,10.0,North,-9999.0,-,N/A,,Clear,0,2013-09-17 11:53:00
8:53 AM,46.9,41.0,80,30.45,10.0,East,3.5,-,N/A,,Clear,80,2013-09-17 12:53:00
9:53 AM,50.0,39.0,66,30.46,10.0,East,5.8,-,N/A,,Clear,80,2013-09-17 13:53:00
10:53 AM,53.1,39.0,59,30.45,10.0,East,6.9,-,N/A,,Clear,80,2013-09-17 14:53:00
11:53 AM,55.9,39.0,53,30.44,10.0,Variable,3.5,-,N/A,,Clear,0,2013-09-17 15:53:00
12:53 PM,60.1,37.0,42,30.43,9.0,NE,4.6,-,N/A,,Clear,40,2013-09-17 16:53:00
1:53 PM,63.0,36.0,37,30.40,10.0,East,6.9,-,N/A,,Clear,100,2013-09-17 17:53:00
2:53 PM,64.0,33.1,31,30.38,10.0,Calm,Calm,-,N/A,,Clear,0,2013-09-17 18:53:00
3:53 PM,64.9,32.0,29,30.36,10.0,Variable,4.6,-,N/A,,Clear,0,2013-09-17 19:53:00
4:53 PM,66.0,34.0,30,30.34,8.0,Variable,3.5,-,N/A,,Clear,0,2013-09-17 20:53:00
5:06 PM,66.2,33.8,30,30.33,7.0,East,4.6,-,N/A,,Partly Cloudy,90,2013-09-17 21:06:00
5:53 PM,64.0,34.0,33,30.34,10.0,Calm,Calm,-,N/A,,Clear,0,2013-09-17 21:53:00
6:53 PM,62.1,37.0,39,30.34,10.0,Calm,Calm,-,N/A,,Clear,0,2013-09-17 22:53:00
7:53 PM,55.0,39.0,55,30.35,10.0,East,3.5,-,N/A,,Clear,80,2013-09-17 23:53:00
8:53 PM,53.1,39.9,61,30.35,10.0,ESE,3.5,-,N/A,,Clear,110,2013-09-18 00:53:00
9:53 PM,48.9,41.0,74,30.36,10.0,Calm,Calm,-,N/A,,Clear,0,2013-09-18 01:53:00
10:53 PM,46.9,41.0,80,30.36,10.0,Calm,Calm,-,N/A,,Clear,0,2013-09-18 02:53:00
11:53 PM,46.0,39.0,76,30.36,10.0,Calm,Calm,-,N/A,,Clear,0,2013-09-18 03:53:00